createdAt,value
2019-04-05T00:01:21.512Z,9.60
2019-04-05T00:03:52.100Z,10.27
2019-04-05T00:06:23.336Z,10.60
2019-04-05T00:08:53.913Z,9.27
2019-04-05T00:11:24.827Z,9.60
2019-04-05T00:13:55.322Z,9.73
2019-04-05T00:16:26.314Z,9.37
2019-04-05T00:18:56.783Z,8.40
2019-04-05T00:21:27.897Z,9.90
2019-04-05T00:23:58.861Z,9.20
2019-04-05T00:26:29.501Z,11.20
2019-04-05T00:29:00.031Z,9.53
2019-04-05T00:31:32.115Z,9.47
2019-04-05T00:34:03.794Z,9.37
2019-04-05T00:36:34.823Z,10.27
2019-04-05T00:39:08.068Z,8.30
2019-04-05T00:41:40.194Z,8.77
2019-04-05T00:44:10.789Z,9.37
2019-04-05T00:46:44.582Z,10.83
2019-04-05T00:49:14.456Z,9.60
2019-04-05T00:51:44.952Z,10.20
2019-04-05T00:54:15.940Z,9.80
2019-04-05T00:56:46.497Z,10.60
2019-04-05T00:59:17.564Z,9.63
2019-04-05T01:01:48.450Z,9.37
2019-04-05T01:04:18.926Z,8.70
2019-04-05T01:06:49.457Z,10.17
2019-04-05T01:09:20.009Z,10.80
2019-04-05T01:11:50.670Z,10.17
2019-04-05T01:14:22.574Z,10.03
2019-04-05T01:16:53.106Z,9.27
2019-04-05T01:19:25.093Z,9.03
2019-04-05T01:21:57.345Z,10.10
2019-04-05T01:24:27.995Z,8.30
2019-04-05T01:27:00.612Z,7.57
2019-04-05T01:29:31.588Z,8.70
2019-04-05T01:32:02.089Z,10.23
2019-04-05T01:34:32.665Z,10.60
2019-04-05T01:37:03.313Z,11.27
2019-04-05T01:39:33.829Z,11.10
2019-04-05T01:42:05.128Z,10.07
2019-04-05T01:44:36.695Z,9.73
2019-04-05T01:47:08.365Z,10.63
2019-04-05T01:49:40.310Z,11.13
2019-04-05T01:52:11.261Z,9.27
2019-04-05T01:54:41.806Z,9.10
2019-04-05T01:57:12.446Z,10.37
2019-04-05T01:59:43.880Z,11.90
2019-04-05T02:02:14.482Z,10.10
2019-04-05T02:04:44.995Z,8.63
2019-04-05T02:07:15.973Z,8.53
2019-04-05T02:09:46.538Z,8.90
2019-04-05T02:12:17.058Z,9.80
2019-04-05T02:14:47.523Z,9.20
2019-04-05T02:17:18.188Z,9.83
2019-04-05T02:19:48.725Z,10.80
2019-04-05T02:22:19.620Z,9.30
2019-04-05T02:24:50.143Z,9.67
2019-04-05T02:27:21.596Z,9.53
2019-04-05T02:29:52.122Z,10.30
2019-04-05T02:32:22.667Z,10.73
2019-04-05T02:34:53.203Z,9.57
2019-04-05T02:37:23.753Z,10.83
2019-04-05T02:39:54.260Z,11.43
2019-04-05T02:42:25.063Z,10.63
2019-04-05T02:44:55.733Z,9.70
2019-04-05T02:47:27.355Z,9.20
2019-04-05T02:49:58.927Z,10.13
2019-04-05T02:52:30.271Z,11.27
2019-04-05T02:55:02.491Z,11.23
2019-04-05T02:57:34.417Z,11.17
2019-04-05T03:00:05.319Z,10.00
2019-04-05T03:02:36.589Z,8.97
2019-04-05T03:05:07.232Z,8.50
2019-04-05T03:07:38.162Z,10.57
2019-04-05T03:10:08.692Z,11.20
2019-04-05T03:12:39.735Z,10.13
2019-04-05T03:15:10.855Z,10.23
2019-04-05T03:17:41.636Z,9.93
2019-04-05T03:20:12.381Z,10.73
2019-04-05T03:22:43.412Z,11.00
2019-04-05T03:25:14.430Z,11.33
2019-04-05T03:27:45.325Z,12.80
2019-04-05T03:30:16.410Z,11.23
2019-04-05T03:32:48.225Z,12.77
2019-04-05T03:35:20.157Z,12.10
2019-04-05T03:37:50.732Z,12.23
2019-04-05T03:40:22.230Z,11.53
2019-04-05T03:42:52.838Z,12.70
2019-04-05T03:45:23.765Z,11.30
2019-04-05T03:47:55.503Z,9.60
2019-04-05T03:50:26.042Z,11.57
2019-04-05T03:52:56.561Z,10.73
2019-04-05T03:55:27.541Z,11.00
2019-04-05T03:57:58.101Z,12.23
2019-04-05T04:00:30.401Z,12.03
2019-04-05T04:03:01.137Z,12.13
2019-04-05T04:05:33.601Z,11.77
2019-04-05T04:08:04.602Z,10.53
2019-04-05T04:10:35.857Z,10.37
2019-04-05T04:13:06.590Z,9.63
2019-04-05T04:15:37.667Z,12.20
2019-04-05T04:18:08.241Z,10.40
2019-04-05T04:20:42.584Z,9.80
2019-04-05T04:23:14.048Z,11.23
2019-04-05T04:25:44.966Z,12.97
2019-04-05T04:28:16.469Z,12.90
2019-04-05T04:30:47.105Z,11.93
2019-04-05T04:33:18.522Z,10.83
2019-04-05T04:35:49.084Z,9.57
2019-04-05T04:38:19.638Z,10.47
2019-04-05T04:40:51.836Z,9.20
2019-04-05T04:43:22.487Z,11.50
2019-04-05T04:45:53.413Z,12.17
2019-04-05T04:48:25.277Z,9.97
2019-04-05T04:50:55.904Z,10.37
2019-04-05T04:53:26.663Z,11.23
2019-04-05T04:55:57.206Z,9.60
2019-04-05T04:58:27.764Z,9.47
2019-04-05T05:00:58.560Z,8.97
2019-04-05T05:03:30.086Z,9.03
2019-04-05T05:06:00.732Z,12.43
2019-04-05T05:08:31.659Z,14.63
2019-04-05T05:11:14.039Z,13.00
2019-04-05T05:13:36.312Z,11.63
2019-04-05T05:16:06.975Z,9.53
2019-04-05T05:18:37.886Z,9.80
2019-04-05T05:21:08.959Z,13.17
2019-04-05T05:23:40.869Z,13.00
2019-04-05T05:26:11.533Z,12.50
2019-04-05T05:28:42.687Z,10.87
2019-04-05T05:31:13.526Z,11.23
2019-04-05T05:33:44.102Z,9.97
2019-04-05T05:36:14.655Z,13.47
2019-04-05T05:38:45.239Z,11.27
2019-04-05T05:41:15.647Z,10.30
2019-04-05T05:43:46.853Z,10.27
2019-04-05T05:46:17.436Z,10.37
2019-04-05T05:48:48.837Z,11.23
2019-04-05T05:51:19.599Z,10.50
2019-04-05T05:53:51.060Z,8.90
2019-04-05T05:56:21.594Z,12.27
2019-04-05T05:58:55.317Z,11.50
2019-04-05T06:01:24.900Z,11.13
2019-04-05T06:03:55.519Z,10.27
2019-04-05T06:06:26.048Z,10.77
2019-04-05T06:08:56.973Z,10.83
2019-04-05T06:11:28.929Z,11.93
2019-04-05T06:13:59.491Z,11.83
2019-04-05T06:16:30.012Z,10.37
2019-04-05T06:19:00.487Z,9.43
2019-04-05T06:21:31.001Z,9.60
2019-04-05T06:24:05.070Z,9.07
2019-04-05T06:26:34.528Z,10.67
2019-04-05T06:29:05.056Z,9.53
2019-04-05T06:31:35.570Z,9.93
2019-04-05T06:34:06.506Z,14.90
2019-04-05T06:36:36.968Z,10.43
2019-04-05T06:39:09.283Z,11.70
2019-04-05T06:41:41.190Z,11.97
2019-04-05T06:44:11.816Z,11.37
2019-04-05T06:46:43.438Z,11.23
2019-04-05T06:49:14.380Z,13.90
2019-04-05T06:51:44.919Z,11.10
2019-04-05T06:54:15.445Z,10.07
2019-04-05T06:56:45.979Z,10.53
2019-04-05T06:59:19.283Z,10.33
2019-04-05T07:01:49.961Z,9.17
2019-04-05T07:04:20.477Z,12.00
2019-04-05T07:06:51.048Z,11.20
2019-04-05T07:09:21.598Z,10.37
2019-04-05T07:11:52.169Z,13.73
2019-04-05T07:14:22.788Z,12.40
2019-04-05T07:16:53.292Z,12.03
2019-04-05T07:19:23.870Z,11.23
2019-04-05T07:21:54.379Z,10.97
2019-04-05T07:24:24.929Z,14.87
2019-04-05T07:26:55.900Z,13.77
2019-04-05T07:29:26.495Z,14.47
2019-04-05T07:31:57.987Z,11.53
2019-04-05T07:34:29.986Z,15.40
2019-04-05T07:37:00.972Z,13.37
2019-04-05T07:39:32.056Z,13.77
2019-04-05T07:42:02.559Z,13.70
2019-04-05T07:44:33.633Z,13.00
2019-04-05T07:47:04.206Z,14.70
2019-04-05T07:49:34.870Z,10.33
2019-04-05T07:52:05.919Z,10.80
2019-04-05T07:54:37.449Z,9.97
2019-04-05T07:57:07.975Z,11.27
2019-04-05T07:59:39.576Z,12.60
2019-04-05T08:02:10.462Z,10.57
2019-04-05T08:04:41.056Z,12.97
2019-04-05T08:07:13.068Z,12.87
2019-04-05T08:09:43.748Z,11.90
2019-04-05T08:12:14.824Z,11.87
2019-04-05T08:14:45.940Z,10.87
2019-04-05T08:17:16.928Z,7.77
2019-04-05T08:19:47.530Z,8.73
2019-04-05T08:22:18.500Z,9.83
2019-04-05T08:24:50.073Z,9.83
2019-04-05T08:27:20.612Z,8.70
2019-04-05T08:29:51.168Z,9.53
2019-04-05T08:32:22.294Z,13.60
2019-04-05T08:34:53.933Z,11.63
2019-04-05T08:37:24.498Z,10.90
2019-04-05T08:39:55.002Z,9.87
2019-04-05T08:42:25.908Z,7.73
2019-04-05T08:44:56.423Z,9.53
2019-04-05T08:47:27.421Z,10.57
2019-04-05T08:49:58.500Z,10.70
2019-04-05T08:52:30.082Z,9.00
2019-04-05T08:55:00.581Z,9.30
2019-04-05T08:57:31.169Z,9.87
2019-04-05T09:00:02.100Z,8.13
2019-04-05T09:02:32.788Z,8.60
2019-04-05T09:05:03.253Z,8.27
2019-04-05T09:07:34.236Z,10.70
2019-04-05T09:10:06.594Z,11.30
2019-04-05T09:12:37.605Z,9.93
2019-04-05T09:15:08.240Z,12.67
2019-04-05T09:17:38.878Z,10.23
2019-04-05T09:20:09.849Z,8.20
2019-04-05T09:22:40.472Z,9.27
2019-04-05T09:25:11.519Z,9.10
2019-04-05T09:27:42.017Z,7.13
2019-04-05T09:30:13.156Z,9.47
2019-04-05T09:32:43.860Z,9.87
2019-04-05T09:35:14.712Z,9.50
2019-04-05T09:37:45.746Z,9.20
2019-04-05T09:40:16.871Z,10.00
2019-04-05T09:42:47.463Z,8.40
2019-04-05T09:45:17.973Z,9.17
2019-04-05T09:47:49.004Z,8.67
2019-04-05T09:50:20.826Z,8.57
2019-04-05T09:52:51.377Z,9.53
2019-04-05T09:55:21.961Z,9.80
2019-04-05T09:57:52.454Z,9.63
2019-04-05T10:00:24.704Z,8.03
2019-04-05T10:02:55.316Z,7.37
2019-04-05T10:05:27.975Z,10.47
2019-04-05T10:07:58.531Z,8.37
2019-04-05T10:10:30.436Z,9.13
2019-04-05T10:13:00.923Z,9.23
2019-04-05T10:15:31.500Z,9.13
2019-04-05T10:18:02.064Z,11.20
2019-04-05T10:20:32.594Z,10.80
2019-04-05T10:23:03.692Z,8.53
2019-04-05T10:25:34.684Z,8.97
2019-04-05T10:28:05.544Z,9.00
2019-04-05T10:30:36.089Z,9.70
2019-04-05T10:33:07.046Z,10.80
2019-04-05T10:35:39.201Z,9.33
2019-04-05T10:38:10.113Z,11.80
2019-04-05T10:40:41.148Z,11.93
2019-04-05T10:43:11.912Z,12.07
2019-04-05T10:45:42.502Z,10.83
2019-04-05T10:48:13.084Z,12.27
2019-04-05T10:50:44.300Z,10.23
2019-04-05T10:53:15.260Z,10.97
2019-04-05T10:55:45.836Z,11.47
2019-04-05T10:58:17.380Z,13.73
2019-04-05T11:00:47.979Z,11.50
2019-04-05T11:03:19.016Z,13.67
2019-04-05T11:05:49.691Z,12.97
2019-04-05T11:08:21.235Z,11.60
2019-04-05T11:10:52.241Z,13.30
2019-04-05T11:13:23.251Z,10.37
2019-04-05T11:15:55.230Z,10.77
2019-04-05T11:18:25.901Z,13.80
2019-04-05T11:20:56.710Z,13.43
2019-04-05T11:23:27.212Z,13.30
2019-04-05T11:25:58.142Z,10.07
2019-04-05T11:28:29.152Z,10.47
2019-04-05T11:31:00.027Z,11.70
2019-04-05T11:33:30.539Z,13.40
2019-04-05T11:36:01.733Z,10.20
2019-04-05T11:38:33.308Z,12.47
2019-04-05T11:41:04.001Z,13.80
2019-04-05T11:43:36.173Z,12.90
2019-04-05T11:46:08.402Z,12.20
2019-04-05T11:48:41.408Z,13.13
2019-04-05T11:51:11.947Z,12.00
2019-04-05T11:53:43.901Z,11.37
2019-04-05T11:56:17.452Z,13.70
2019-04-05T11:58:49.053Z,12.80
2019-04-05T12:01:41.465Z,13.63
2019-04-05T12:04:12.424Z,12.23
2019-04-05T12:06:43.031Z,9.73
2019-04-05T12:09:13.533Z,10.33
2019-04-05T12:11:46.362Z,12.63
2019-04-05T12:14:29.342Z,11.70
2019-04-05T12:16:49.494Z,11.43
2019-04-05T12:19:21.106Z,11.27
2019-04-05T12:21:52.210Z,10.37
2019-04-05T12:24:23.252Z,12.47
2019-04-05T12:26:54.270Z,11.67
2019-04-05T12:29:24.845Z,12.47
2019-04-05T12:31:55.955Z,11.57
2019-04-05T12:34:28.594Z,12.77
2019-04-05T12:36:58.997Z,11.70
2019-04-05T12:39:29.503Z,12.93
2019-04-05T12:42:01.041Z,12.27
2019-04-05T12:44:32.043Z,11.57
2019-04-05T12:47:04.022Z,11.70
2019-04-05T12:49:34.586Z,13.53
2019-04-05T12:52:05.265Z,12.07
2019-04-05T12:54:35.797Z,11.77
2019-04-05T12:57:06.391Z,12.30
2019-04-05T12:59:37.350Z,12.30
2019-04-05T13:02:08.475Z,12.83
2019-04-05T13:04:39.041Z,11.83
2019-04-05T13:07:09.969Z,13.40
2019-04-05T13:09:40.520Z,12.23
2019-04-05T13:12:11.620Z,13.10
2019-04-05T13:14:42.105Z,12.77
2019-04-05T13:17:12.903Z,13.60
2019-04-05T13:19:43.503Z,13.03
2019-04-05T13:22:14.033Z,13.97
2019-04-05T13:24:45.444Z,12.70
2019-04-05T13:27:16.473Z,13.53
2019-04-05T13:29:47.366Z,14.40
2019-04-05T13:32:21.573Z,13.70
2019-04-05T13:34:55.372Z,13.23
2019-04-05T13:37:24.030Z,12.53
2019-04-05T13:39:55.009Z,13.10
2019-04-05T13:42:25.941Z,13.47
2019-04-05T13:44:57.308Z,13.67
2019-04-05T13:47:27.815Z,15.17
2019-04-05T13:49:58.445Z,13.57
2019-04-05T13:52:29.403Z,13.33
2019-04-05T13:55:00.013Z,14.67
2019-04-05T13:57:30.513Z,13.07
2019-04-05T14:00:01.812Z,14.07
2019-04-05T14:02:33.844Z,12.87
2019-04-05T14:05:05.301Z,13.50
2019-04-05T14:07:36.666Z,11.50
2019-04-05T14:10:10.504Z,14.17
2019-04-05T14:12:40.963Z,12.90
2019-04-05T14:15:12.894Z,12.90
2019-04-05T14:17:44.950Z,14.37
2019-04-05T14:20:18.570Z,11.70
2019-04-05T14:22:48.667Z,11.53
2019-04-05T14:25:23.406Z,13.43
2019-04-05T14:27:54.099Z,15.60
2019-04-05T14:30:26.427Z,15.17
2019-04-05T14:32:57.153Z,13.87
2019-04-05T14:35:27.737Z,12.43
2019-04-05T14:37:58.234Z,13.17
2019-04-05T14:40:31.577Z,13.93
2019-04-05T14:43:02.056Z,12.60
2019-04-05T14:45:32.701Z,12.23
2019-04-05T14:48:03.198Z,11.97
2019-04-05T14:50:33.749Z,12.43
2019-04-05T14:53:05.777Z,11.53
2019-04-05T14:55:37.936Z,12.03
2019-04-05T14:58:10.668Z,13.57
2019-04-05T15:00:41.304Z,12.77
2019-04-05T15:03:11.865Z,12.63
2019-04-05T15:05:42.340Z,12.10
2019-04-05T15:08:13.708Z,11.53
2019-04-05T15:10:44.676Z,12.53
2019-04-05T15:13:15.308Z,12.70
2019-04-05T15:15:46.208Z,12.10
2019-04-05T15:18:19.447Z,12.53
2019-04-05T15:20:49.279Z,10.67
2019-04-05T15:23:19.773Z,11.67
2019-04-05T15:25:50.501Z,12.60
2019-04-05T15:28:22.476Z,13.23
2019-04-05T15:30:56.128Z,12.80
2019-04-05T15:33:27.761Z,14.63
2019-04-05T15:36:02.315Z,14.67
2019-04-05T15:38:31.809Z,14.83
2019-04-05T15:41:04.561Z,14.40
2019-04-05T15:43:35.181Z,13.50
2019-04-05T15:46:05.736Z,14.77
2019-04-05T15:48:37.243Z,15.40
2019-04-05T15:51:07.880Z,14.53
2019-04-05T15:53:39.336Z,14.63
2019-04-05T15:56:09.930Z,14.10
2019-04-05T15:58:40.997Z,14.97
2019-04-05T16:01:12.080Z,13.30
2019-04-05T16:03:43.061Z,14.03
2019-04-05T16:06:13.559Z,15.93
2019-04-05T16:08:45.312Z,16.53
2019-04-05T16:11:15.853Z,16.97
2019-04-05T16:13:46.448Z,13.73
2019-04-05T16:16:17.023Z,17.17
2019-04-05T16:18:48.513Z,17.10
2019-04-05T16:21:19.525Z,15.93
2019-04-05T16:23:51.663Z,17.90
2019-04-05T16:26:23.025Z,17.63
2019-04-05T16:28:54.108Z,16.80
2019-04-05T16:31:33.602Z,17.03
2019-04-05T16:34:04.668Z,16.83
2019-04-05T16:36:35.112Z,16.47
2019-04-05T16:39:11.448Z,16.87
2019-04-05T16:41:42.382Z,17.63
2019-04-05T16:44:13.760Z,18.07
2019-04-05T16:46:44.885Z,16.27
2019-04-05T16:49:15.417Z,18.10
2019-04-05T16:51:46.480Z,16.73
2019-04-05T16:54:17.011Z,16.57
2019-04-05T16:56:49.183Z,14.97
2019-04-05T16:59:20.104Z,17.77
2019-04-05T17:01:56.636Z,16.20
2019-04-05T17:04:25.660Z,16.70
2019-04-05T17:06:56.098Z,19.40
2019-04-05T17:09:27.040Z,15.57
2019-04-05T17:11:57.455Z,15.87
2019-04-05T17:14:27.916Z,17.33
2019-04-05T17:16:58.798Z,19.27
2019-04-05T17:19:30.225Z,16.37
2019-04-05T17:22:01.535Z,16.03
2019-04-05T17:24:32.947Z,14.80
2019-04-05T17:27:03.444Z,15.40
2019-04-05T17:29:35.432Z,15.57
2019-04-05T17:32:06.315Z,17.13
2019-04-05T17:34:37.164Z,15.43
2019-04-05T17:37:08.081Z,14.70
2019-04-05T17:39:39.569Z,14.27
2019-04-05T17:42:10.743Z,16.73
2019-04-05T17:44:41.620Z,15.03
2019-04-05T17:47:12.197Z,15.93
2019-04-05T17:49:43.235Z,15.70
2019-04-05T17:52:14.166Z,15.43
2019-04-05T17:54:44.765Z,14.67
2019-04-05T17:57:16.655Z,12.93
2019-04-05T17:59:48.924Z,13.77
2019-04-05T18:02:19.578Z,13.30
2019-04-05T18:04:50.178Z,13.67
2019-04-05T18:07:21.518Z,12.67
2019-04-05T18:09:52.973Z,11.77
2019-04-05T18:12:24.114Z,15.27
2019-04-05T18:14:54.669Z,14.93
2019-04-05T18:17:25.343Z,14.67
2019-04-05T18:19:58.133Z,14.07
2019-04-05T18:22:28.790Z,13.07
2019-04-05T18:25:00.021Z,13.73
2019-04-05T18:27:30.553Z,14.17
2019-04-05T18:30:01.626Z,15.10
2019-04-05T18:32:34.737Z,14.00
2019-04-05T18:35:06.920Z,13.27
2019-04-05T18:37:38.564Z,13.47
2019-04-05T18:40:09.985Z,14.47
2019-04-05T18:42:40.589Z,13.50
2019-04-05T18:45:11.320Z,12.23
2019-04-05T18:47:42.380Z,13.23
2019-04-05T18:50:12.975Z,14.60
2019-04-05T18:52:43.485Z,14.50
2019-04-05T18:55:14.277Z,13.23
2019-04-05T18:57:47.980Z,15.13
2019-04-05T19:00:19.652Z,13.57
2019-04-05T19:02:50.222Z,13.47
2019-04-05T19:05:21.175Z,13.43
2019-04-05T19:07:51.673Z,14.47
2019-04-05T19:10:22.757Z,13.00
2019-04-05T19:12:53.401Z,12.30
2019-04-05T19:15:24.744Z,12.20
2019-04-05T19:17:55.296Z,13.33
2019-04-05T19:20:25.864Z,14.70
2019-04-05T19:22:56.921Z,17.53
2019-04-05T19:25:29.962Z,16.67
2019-04-05T19:28:00.504Z,17.63
2019-04-05T19:50:57.750Z,15.47
2019-04-05T19:53:32.707Z,16.50
2019-04-05T19:56:03.713Z,17.63
2019-04-05T19:58:35.956Z,16.07
2019-04-05T20:01:09.918Z,15.63
2019-04-05T20:03:41.035Z,16.27
2019-04-05T20:06:13.200Z,16.20
2019-04-05T20:08:43.773Z,15.90
2019-04-05T20:11:14.272Z,16.23
2019-04-05T20:13:45.434Z,16.93
2019-04-05T20:16:16.976Z,16.97
2019-04-05T20:18:49.170Z,16.50
2019-04-05T20:21:19.828Z,14.80
2019-04-05T20:23:51.518Z,14.13
2019-04-05T20:26:22.293Z,14.93
2019-04-05T20:28:53.220Z,14.83
2019-04-05T20:31:24.207Z,15.30
2019-04-05T20:33:55.678Z,15.00
2019-04-05T20:36:27.653Z,16.03
2019-04-05T20:38:58.152Z,14.93
2019-04-05T20:41:29.300Z,15.63
2019-04-05T20:44:02.110Z,15.03
2019-04-05T20:46:33.205Z,14.17
2019-04-05T20:49:04.146Z,14.20
2019-04-05T20:51:34.716Z,15.00
2019-04-05T20:54:06.644Z,14.30
2019-04-05T20:56:37.247Z,16.20
2019-04-05T20:59:07.776Z,16.77
2019-04-05T21:01:39.248Z,15.53
2019-04-05T21:04:10.273Z,16.70
2019-04-05T21:06:40.890Z,16.47
2019-04-05T21:09:11.958Z,13.83
2019-04-05T21:11:43.096Z,17.07
2019-04-05T21:14:13.643Z,17.50
2019-04-05T21:16:44.663Z,15.23
2019-04-05T21:19:16.076Z,15.23
2019-04-05T21:21:47.039Z,15.50
2019-04-05T21:24:17.796Z,17.40
2019-04-05T21:26:48.413Z,19.03
2019-04-05T21:29:19.313Z,16.57
2019-04-05T21:31:49.869Z,16.60
2019-04-05T21:34:21.133Z,16.60
2019-04-05T21:36:52.724Z,16.07
2019-04-05T21:39:24.502Z,16.70
2019-04-05T21:41:56.237Z,17.10
2019-04-05T21:44:27.729Z,17.43
2019-04-05T21:46:58.701Z,16.20
2019-04-05T21:49:30.166Z,15.67
2019-04-05T21:52:00.779Z,14.93
2019-04-05T21:54:31.352Z,15.87
2019-04-05T21:57:01.869Z,15.63
2019-04-05T21:59:32.869Z,14.33
2019-04-05T22:02:03.770Z,17.83
2019-04-05T22:04:34.864Z,16.07
2019-04-05T22:07:05.492Z,17.07
2019-04-05T22:09:36.528Z,16.57
2019-04-05T22:12:07.541Z,15.17
2019-04-05T22:14:38.099Z,15.10
2019-04-05T22:17:08.490Z,15.67
2019-04-05T22:19:38.913Z,16.00
2019-04-05T22:22:09.577Z,15.40
2019-04-05T22:24:40.033Z,13.97
2019-04-05T22:27:10.897Z,13.77
2019-04-05T22:29:42.788Z,16.63
2019-04-05T22:32:13.247Z,16.43
2019-04-05T22:34:44.396Z,15.10
2019-04-05T22:37:15.032Z,13.47
2019-04-05T22:39:45.724Z,13.47
2019-04-05T22:42:16.268Z,14.70
2019-04-05T22:44:47.572Z,14.73
2019-04-05T22:47:18.145Z,14.40
2019-04-05T22:49:51.515Z,13.87
2019-04-05T22:52:22.012Z,14.17
2019-04-05T22:54:52.684Z,18.63
2019-04-05T22:57:23.152Z,16.03
2019-04-05T22:59:54.108Z,18.73
2019-04-05T23:02:24.633Z,17.17
2019-04-05T23:04:55.225Z,17.87
2019-04-05T23:07:25.650Z,15.30
2019-04-05T23:09:56.099Z,14.40
2019-04-05T23:12:28.027Z,14.80
2019-04-05T23:14:58.439Z,14.60
2019-04-05T23:17:28.824Z,13.73
2019-04-05T23:19:59.382Z,14.90
2019-04-05T23:22:30.432Z,15.57
2019-04-05T23:25:01.488Z,14.20
2019-04-05T23:27:32.038Z,13.97
2019-04-05T23:30:04.415Z,13.80
2019-04-05T23:32:34.979Z,13.03
2019-04-05T23:35:06.089Z,13.17
2019-04-05T23:37:36.600Z,13.87
2019-04-05T23:40:07.285Z,15.47
2019-04-05T23:42:37.768Z,14.23
2019-04-05T23:45:08.333Z,13.70
2019-04-05T23:47:39.280Z,14.23
2019-04-05T23:50:09.932Z,13.70
2019-04-05T23:52:40.908Z,14.17
2019-04-05T23:55:11.603Z,16.53
2019-04-05T23:57:43.591Z,13.80
